createdAt,value
2019-04-10T00:02:15.408Z,98835.45
2019-04-10T00:04:49.511Z,98836.96
2019-04-10T00:07:23.635Z,98837.88
2019-04-10T00:09:57.959Z,98833.69
2019-04-10T00:12:32.119Z,98840.53
2019-04-10T00:15:07.246Z,98838.48
2019-04-10T00:17:41.449Z,98840.39
2019-04-10T00:20:16.286Z,98832.95
2019-04-10T00:22:50.682Z,98839.38
2019-04-10T00:25:24.811Z,98842.33
2019-04-10T00:27:59.284Z,98839.59
2019-04-10T00:30:33.653Z,98848.38
2019-04-10T00:33:08.274Z,98848.17
2019-04-10T00:35:43.626Z,98857.66
2019-04-10T00:38:17.981Z,98852.06
2019-04-10T00:40:52.362Z,98853.52
2019-04-10T00:43:26.726Z,98854.81
2019-04-10T00:46:02.023Z,98858.70
2019-04-10T00:48:36.285Z,98861.17
2019-04-10T00:51:10.876Z,98860.06
2019-04-10T00:53:45.532Z,98854.07
2019-04-10T00:56:20.748Z,98858.09
2019-04-10T00:58:55.446Z,98861.55
2019-04-10T01:01:29.874Z,98867.75
2019-04-10T01:04:04.406Z,98869.97
2019-04-10T01:06:40.375Z,98878.45
2019-04-10T01:09:15.401Z,98891.13
2019-04-10T01:11:49.766Z,98908.48
2019-04-10T01:14:25.230Z,98910.14
2019-04-10T01:17:02.052Z,98916.91
2019-04-10T01:19:36.657Z,98923.92
2019-04-10T01:22:11.347Z,98933.80
2019-04-10T01:24:46.095Z,98934.11
2019-04-10T01:27:20.446Z,98942.14
2019-04-10T01:29:54.298Z,98947.61
2019-04-10T01:32:41.807Z,98948.47
2019-04-10T01:35:16.198Z,98951.77
2019-04-10T01:37:56.158Z,98956.45
2019-04-10T01:40:27.383Z,98957.08
2019-04-10T01:43:08.334Z,98973.11
2019-04-10T01:45:38.211Z,98981.77
2019-04-10T01:48:13.209Z,98987.45
2019-04-10T01:50:47.560Z,98987.68
2019-04-10T01:53:21.903Z,98986.27
2019-04-10T01:55:56.089Z,98990.70
2019-04-10T01:58:30.183Z,98986.48
2019-04-10T02:01:18.629Z,98991.02
2019-04-10T02:03:52.588Z,99000.45
2019-04-10T02:06:27.421Z,99011.76
2019-04-10T02:09:02.537Z,99010.84
2019-04-10T02:11:39.778Z,99019.01
2019-04-10T02:14:14.316Z,99027.70
2019-04-10T02:16:49.742Z,99041.94
2019-04-10T02:19:23.960Z,99043.44
2019-04-10T02:22:00.203Z,99064.82
2019-04-10T02:24:35.480Z,99111.97
2019-04-10T02:27:09.932Z,99170.48
2019-04-10T02:29:44.025Z,99211.15
2019-04-10T02:32:18.969Z,99217.98
2019-04-10T02:34:55.135Z,99181.58
2019-04-10T02:37:31.022Z,99147.77
2019-04-10T02:40:07.133Z,99157.67
2019-04-10T02:42:43.121Z,99199.56
2019-04-10T02:45:18.952Z,99233.52
2019-04-10T02:47:54.927Z,99236.60
2019-04-10T02:50:29.383Z,99220.14
2019-04-10T02:53:05.371Z,99182.38
2019-04-10T02:55:40.865Z,99154.39
2019-04-10T02:58:16.032Z,99142.69
2019-04-10T03:00:53.874Z,99156.67
2019-04-10T03:03:27.552Z,99199.58
2019-04-10T03:06:02.596Z,99226.92
2019-04-10T03:08:54.958Z,99237.84
2019-04-10T03:11:14.463Z,99207.05
2019-04-10T03:13:49.099Z,99165.42
2019-04-10T03:16:23.689Z,99154.52
2019-04-10T03:18:57.568Z,99177.62
2019-04-10T03:21:31.604Z,99208.42
2019-04-10T03:24:06.275Z,99208.76
2019-04-10T03:26:40.256Z,99193.70
2019-04-10T03:29:14.222Z,99169.06
2019-04-10T03:31:50.504Z,99168.72
2019-04-10T03:34:28.394Z,99190.42
2019-04-10T03:37:02.813Z,99217.06
2019-04-10T03:39:38.467Z,99222.23
2019-04-10T03:42:12.747Z,99217.62
2019-04-10T03:44:47.168Z,99196.20
2019-04-10T03:47:21.182Z,99184.14
2019-04-10T03:49:55.438Z,99191.27
2019-04-10T03:52:29.532Z,99197.64
2019-04-10T03:55:04.859Z,99199.05
2019-04-10T03:57:38.797Z,99202.90
2019-04-10T04:00:14.128Z,99213.36
2019-04-10T04:02:48.320Z,99196.56
2019-04-10T04:05:22.450Z,99181.48
2019-04-10T04:07:57.889Z,99178.50
2019-04-10T04:10:32.868Z,99180.72
2019-04-10T04:13:07.521Z,99185.92
2019-04-10T04:15:42.190Z,99202.72
2019-04-10T04:18:17.115Z,99196.38
2019-04-10T04:20:51.323Z,99187.64
2019-04-10T04:23:25.791Z,99180.48
2019-04-10T04:26:00.918Z,99186.66
2019-04-10T04:28:36.230Z,99180.56
2019-04-10T04:31:10.476Z,99183.67
2019-04-10T04:33:45.000Z,99175.14
2019-04-10T04:36:20.301Z,99171.00
2019-04-10T04:38:54.567Z,99163.91
2019-04-10T04:41:29.038Z,99156.27
2019-04-10T04:44:03.960Z,99149.11
2019-04-10T04:46:38.687Z,99158.22
2019-04-10T04:49:13.781Z,99156.05
2019-04-10T04:51:48.131Z,99153.26
2019-04-10T04:54:22.062Z,99152.14
2019-04-10T04:56:56.316Z,99159.93
2019-04-10T04:59:30.531Z,99173.24
2019-04-10T05:02:05.786Z,99179.19
2019-04-10T05:04:40.142Z,99178.72
2019-04-10T05:07:14.941Z,99169.03
2019-04-10T05:09:50.447Z,99177.34
2019-04-10T05:12:25.549Z,99189.92
2019-04-10T05:15:00.376Z,99181.67
2019-04-10T05:17:35.124Z,99172.08
2019-04-10T05:20:11.217Z,99164.38
2019-04-10T05:22:45.671Z,99173.16
2019-04-10T05:25:20.954Z,99169.61
2019-04-10T05:27:55.466Z,99160.59
2019-04-10T05:30:29.679Z,99150.38
2019-04-10T05:33:04.058Z,99140.73
2019-04-10T05:35:39.821Z,99140.75
2019-04-10T05:38:13.782Z,99130.33
2019-04-10T05:40:48.537Z,99124.56
2019-04-10T05:43:22.640Z,99124.58
2019-04-10T05:45:57.169Z,99114.12
2019-04-10T05:48:31.682Z,99107.55
2019-04-10T05:51:07.944Z,99105.34
2019-04-10T05:53:42.956Z,99113.08
2019-04-10T05:56:19.058Z,99113.88
2019-04-10T05:58:53.322Z,99119.95
2019-04-10T06:01:35.235Z,99113.36
2019-04-10T06:04:05.054Z,99115.03
2019-04-10T06:06:39.265Z,99106.77
2019-04-10T06:09:14.308Z,99107.06
2019-04-10T06:11:49.015Z,99088.90
2019-04-10T06:14:24.220Z,99093.31
2019-04-10T06:17:01.257Z,99087.00
2019-04-10T06:19:34.431Z,99081.78
2019-04-10T06:22:09.717Z,99078.49
2019-04-10T06:24:44.677Z,99077.11
2019-04-10T06:27:18.718Z,99068.89
2019-04-10T06:29:53.148Z,99060.34
2019-04-10T06:32:27.560Z,99058.44
2019-04-10T06:35:02.069Z,99048.25
2019-04-10T06:37:36.522Z,99047.44
2019-04-10T06:40:18.158Z,99037.27
2019-04-10T06:42:51.558Z,99036.17
2019-04-10T06:45:26.100Z,99029.88
2019-04-10T06:48:00.515Z,99024.39
2019-04-10T06:50:34.988Z,99009.27
2019-04-10T06:53:10.183Z,99008.44
2019-04-10T06:55:44.899Z,99009.83
2019-04-10T06:58:20.112Z,99009.83
2019-04-10T07:01:01.498Z,98999.09
2019-04-10T07:03:50.762Z,98997.17
2019-04-10T07:06:17.585Z,98989.19
2019-04-10T07:08:50.852Z,98977.64
2019-04-10T07:11:30.513Z,98980.37
2019-04-10T07:14:01.768Z,98975.98
2019-04-10T07:16:37.033Z,98975.17
2019-04-10T07:19:13.111Z,98979.84
2019-04-10T07:21:47.304Z,98977.09
2019-04-10T07:24:21.343Z,98975.42
2019-04-10T07:27:00.228Z,98966.89
2019-04-10T07:29:32.510Z,98955.07
2019-04-10T07:32:09.646Z,98955.64
2019-04-10T07:34:42.582Z,98951.23
2019-04-10T07:37:18.454Z,98948.48
2019-04-10T07:39:53.046Z,98949.58
2019-04-10T07:42:33.916Z,98939.38
2019-04-10T07:45:03.257Z,98937.73
2019-04-10T07:47:38.031Z,98930.29
2019-04-10T07:50:14.251Z,98927.82
2019-04-10T07:52:48.503Z,98926.16
2019-04-10T07:55:23.878Z,98917.91
2019-04-10T07:57:59.248Z,98916.53
2019-04-10T08:00:34.411Z,98910.77
2019-04-10T08:03:08.859Z,98911.30
2019-04-10T08:05:44.034Z,98904.98
2019-04-10T08:08:19.257Z,98904.96
2019-04-10T08:10:53.146Z,98903.86
2019-04-10T08:13:26.938Z,98901.67
2019-04-10T08:16:00.806Z,98892.30
2019-04-10T08:18:37.711Z,98891.45
2019-04-10T08:21:11.918Z,98880.19
2019-04-10T08:23:46.574Z,98879.38
2019-04-10T08:26:21.392Z,98872.49
2019-04-10T08:28:57.148Z,98873.30
2019-04-10T08:31:32.840Z,98866.67
2019-04-10T08:34:07.081Z,98866.14
2019-04-10T08:36:41.079Z,98862.83
2019-04-10T08:39:28.437Z,98858.13
2019-04-10T08:41:52.207Z,98849.33
2019-04-10T08:44:26.371Z,98844.39
2019-04-10T08:47:00.694Z,98838.31
2019-04-10T08:49:34.916Z,98838.02
2019-04-10T08:52:10.326Z,98834.99
2019-04-10T08:54:44.770Z,98821.79
2019-04-10T08:57:19.326Z,98819.84
2019-04-10T08:59:54.148Z,98821.50
2019-04-10T09:02:28.401Z,98818.17
2019-04-10T09:05:03.625Z,98806.60
2019-04-10T09:07:38.370Z,98807.69
2019-04-10T09:10:12.526Z,98806.86
2019-04-10T09:12:47.268Z,98795.00
2019-04-10T09:15:21.755Z,98790.58
2019-04-10T09:17:55.987Z,98791.13
2019-04-10T09:20:30.958Z,98788.63
2019-04-10T09:25:41.612Z,98792.74
2019-04-10T09:28:16.347Z,98788.03
2019-04-10T09:30:51.300Z,98785.00
2019-04-10T09:33:28.227Z,98779.20
2019-04-10T09:36:02.643Z,98779.24
2019-04-10T09:38:37.068Z,98780.28
2019-04-10T09:41:12.272Z,98779.69
2019-04-10T09:43:47.714Z,98774.83
2019-04-10T09:46:22.123Z,98775.73
2019-04-10T09:48:56.458Z,98769.02
2019-04-10T09:51:31.856Z,98768.12
2019-04-10T09:54:07.794Z,98765.77
2019-04-10T09:56:42.057Z,98763.52
2019-04-10T09:59:16.481Z,98758.84
2019-04-10T10:01:51.414Z,98756.41
2019-04-10T10:04:26.041Z,98749.28
2019-04-10T10:07:00.480Z,98745.59
2019-04-10T10:09:34.805Z,98742.02
2019-04-10T10:12:09.617Z,98744.78
2019-04-10T10:14:44.309Z,98743.34
2019-04-10T10:17:20.210Z,98734.48
2019-04-10T10:19:55.374Z,98737.79
2019-04-10T10:22:30.881Z,98730.58
2019-04-10T10:25:06.968Z,98734.72
2019-04-10T10:27:42.580Z,98733.11
2019-04-10T10:30:17.931Z,98730.39
2019-04-10T10:32:53.176Z,98726.39
2019-04-10T10:35:29.409Z,98726.97
2019-04-10T10:38:05.302Z,98721.76
2019-04-10T10:40:39.844Z,98723.83
2019-04-10T10:43:14.201Z,98718.73
2019-04-10T10:45:49.186Z,98715.84
2019-04-10T10:48:23.994Z,98725.16
2019-04-10T10:50:58.305Z,98718.53
2019-04-10T10:53:32.442Z,98725.92
2019-04-10T10:56:07.301Z,98723.68
2019-04-10T10:58:41.503Z,98724.55
2019-04-10T11:01:15.875Z,98716.84
2019-04-10T11:03:51.077Z,98719.64
2019-04-10T11:06:25.270Z,98716.34
2019-04-10T11:08:59.685Z,98721.98
2019-04-10T11:11:34.743Z,98718.95
2019-04-10T11:14:10.962Z,98714.61
2019-04-10T11:16:45.537Z,98714.45
2019-04-10T11:19:21.095Z,98711.09
2019-04-10T11:21:56.751Z,98718.61
2019-04-10T11:24:31.614Z,98714.80
2019-04-10T11:27:06.316Z,98721.73
2019-04-10T11:29:42.614Z,98718.34
2019-04-10T11:32:17.622Z,98718.57
2019-04-10T11:34:52.880Z,98719.92
2019-04-10T11:37:37.476Z,98710.52
2019-04-10T11:40:05.163Z,98716.31
2019-04-10T11:42:40.167Z,98716.58
2019-04-10T11:45:18.153Z,98714.45
2019-04-10T11:47:52.831Z,98721.49
2019-04-10T11:50:28.564Z,98718.11
2019-04-10T11:53:04.402Z,98717.01
2019-04-10T11:58:17.805Z,98721.22
2019-04-10T12:00:54.632Z,98717.91
2019-04-10T12:03:28.244Z,98719.27
2019-04-10T12:06:04.340Z,98714.08
2019-04-10T12:09:04.370Z,98718.41
2019-04-10T12:11:18.538Z,98716.69
2019-04-10T12:13:50.488Z,98719.58
2019-04-10T12:16:25.163Z,98722.05
2019-04-10T12:18:59.419Z,98732.02
2019-04-10T12:21:33.756Z,98727.32
2019-04-10T12:24:07.885Z,98732.53
2019-04-10T12:26:42.374Z,98745.06
2019-04-10T12:29:16.412Z,98741.47
2019-04-10T12:31:52.309Z,98739.73
2019-04-10T12:34:26.726Z,98738.16
2019-04-10T12:37:01.105Z,98737.22
2019-04-10T12:39:36.342Z,98740.95
2019-04-10T12:42:10.520Z,98738.88
2019-04-10T12:44:44.576Z,98744.13
2019-04-10T12:47:18.790Z,98745.22
2019-04-10T12:49:52.724Z,98747.67
2019-04-10T12:52:27.099Z,98752.33
2019-04-10T12:55:01.915Z,98750.67
2019-04-10T12:57:37.057Z,98752.82
2019-04-10T13:00:15.889Z,98761.08
2019-04-10T13:02:52.438Z,98760.78
2019-04-10T13:05:29.335Z,98761.59
2019-04-10T13:08:14.627Z,98763.20
2019-04-10T13:10:40.473Z,98766.75
2019-04-10T13:13:14.616Z,98765.61
2019-04-10T13:15:49.754Z,98764.80
2019-04-10T13:18:24.669Z,98758.98
2019-04-10T13:20:58.959Z,98765.56
2019-04-10T13:23:33.151Z,98765.85
2019-04-10T13:26:09.620Z,98772.18
2019-04-10T13:28:44.099Z,98771.59
2019-04-10T13:31:19.253Z,98780.11
2019-04-10T13:33:53.365Z,98777.37
2019-04-10T13:36:27.490Z,98778.98
2019-04-10T13:39:02.486Z,98782.87
2019-04-10T13:41:38.632Z,98783.89
2019-04-10T13:44:12.718Z,98788.02
2019-04-10T13:46:46.966Z,98780.83
2019-04-10T13:49:21.911Z,98785.51
2019-04-10T13:51:57.498Z,98784.91
2019-04-10T13:54:36.765Z,98784.12
2019-04-10T13:57:11.905Z,98784.91
2019-04-10T13:59:46.934Z,98786.08
2019-04-10T14:02:32.232Z,98784.55
2019-04-10T14:05:07.900Z,98791.50
2019-04-10T14:07:44.934Z,98791.77
2019-04-10T14:10:20.920Z,98791.52
2019-04-10T14:12:56.411Z,98800.35
2019-04-10T14:15:31.744Z,98809.99
2019-04-10T14:18:08.168Z,98804.48
2019-04-10T14:20:43.721Z,98802.30
2019-04-10T14:23:23.881Z,98802.02
2019-04-10T14:26:30.117Z,98810.28
2019-04-10T14:29:02.187Z,98808.06
2019-04-10T14:31:42.675Z,98811.66
2019-04-10T14:34:18.819Z,98826.23
2019-04-10T14:36:53.291Z,98827.08
2019-04-10T14:39:27.585Z,98836.14
2019-04-10T14:42:02.341Z,98837.23
2019-04-10T14:44:36.857Z,98831.17
2019-04-10T14:47:13.480Z,98834.77
2019-04-10T14:49:47.814Z,98836.67
2019-04-10T14:52:23.223Z,98840.52
2019-04-10T14:55:02.101Z,98848.21
2019-04-10T14:57:36.947Z,98841.64
2019-04-10T15:00:17.297Z,98845.77
2019-04-10T15:02:51.743Z,98848.77
2019-04-10T15:05:25.944Z,98855.12
2019-04-10T15:08:01.597Z,98856.50
2019-04-10T15:10:36.160Z,98858.44
2019-04-10T15:13:16.247Z,98868.61
2019-04-10T15:15:46.229Z,98872.45
2019-04-10T15:18:20.522Z,98875.77
2019-04-10T15:20:56.571Z,98880.72
2019-04-10T15:23:31.692Z,98879.34
2019-04-10T15:26:06.475Z,98875.48
2019-04-10T15:28:41.412Z,98872.45
2019-04-10T15:31:15.823Z,98875.77
2019-04-10T15:33:49.916Z,98872.97
2019-04-10T15:36:25.198Z,98881.06
2019-04-10T15:39:00.371Z,98880.72
2019-04-10T15:41:39.197Z,98885.92
2019-04-10T15:44:14.880Z,98887.03
2019-04-10T15:46:49.187Z,98896.70
2019-04-10T15:49:23.429Z,98897.31
2019-04-10T15:51:57.365Z,98896.33
2019-04-10T15:54:32.114Z,98904.14
2019-04-10T15:57:06.831Z,98905.05
2019-04-10T15:59:41.052Z,98903.94
2019-04-10T16:02:15.446Z,98908.16
2019-04-10T16:04:49.473Z,98917.75
2019-04-10T16:07:24.452Z,98920.05
2019-04-10T16:10:07.136Z,98923.66
2019-04-10T16:12:41.671Z,98922.96
2019-04-10T16:15:17.265Z,98925.83
2019-04-10T16:17:59.194Z,98932.59
2019-04-10T16:20:34.701Z,98936.58
2019-04-10T16:23:31.412Z,98944.31
2019-04-10T16:26:07.050Z,98942.22
2019-04-10T16:28:41.143Z,98948.38
2019-04-10T16:31:15.303Z,98946.40
2019-04-10T16:33:50.505Z,98947.71
2019-04-10T16:36:26.332Z,98949.05
2019-04-10T16:39:00.887Z,98957.16
2019-04-10T16:41:37.544Z,98949.41
2019-04-10T16:44:13.040Z,98951.59
2019-04-10T16:46:49.446Z,98956.98
2019-04-10T16:49:23.203Z,98952.92
2019-04-10T16:51:58.697Z,98954.30
2019-04-10T16:54:33.336Z,98949.11
2019-04-10T16:57:08.257Z,98950.84
2019-04-10T16:59:42.676Z,98953.62
2019-04-10T17:02:17.910Z,98947.73
2019-04-10T17:04:52.330Z,98949.06
2019-04-10T17:07:27.271Z,98952.30
2019-04-10T17:10:12.626Z,98962.03
2019-04-10T17:12:38.068Z,98965.63
2019-04-10T17:15:12.851Z,98954.38
2019-04-10T17:17:47.059Z,98960.83
2019-04-10T17:20:22.419Z,98949.23
2019-04-10T17:22:57.217Z,98959.72
2019-04-10T17:25:32.315Z,98957.92
2019-04-10T17:28:08.052Z,98959.16
2019-04-10T17:30:42.364Z,98964.04
2019-04-10T17:33:16.698Z,98961.09
2019-04-10T17:35:51.803Z,98957.59
2019-04-10T17:38:26.747Z,98954.59
2019-04-10T17:41:04.461Z,98960.53
2019-04-10T17:43:38.695Z,98960.34
2019-04-10T17:46:13.215Z,98955.44
2019-04-10T17:48:47.746Z,98954.81
2019-04-10T17:51:22.070Z,98959.50
2019-04-10T17:53:57.850Z,98966.34
2019-04-10T17:56:32.593Z,98954.59
2019-04-10T17:59:07.876Z,98952.50
2019-04-10T18:01:43.237Z,98952.19
2019-04-10T18:04:17.973Z,98952.00
2019-04-10T18:06:52.081Z,98943.41
2019-04-10T18:09:27.883Z,98947.14
2019-04-10T18:12:02.200Z,98944.97
2019-04-10T18:14:39.104Z,98940.94
2019-04-10T18:17:12.216Z,98937.16
2019-04-10T18:19:46.236Z,98934.94
2019-04-10T18:22:20.671Z,98931.27
2019-04-10T18:24:55.732Z,98928.02
2019-04-10T18:27:30.266Z,98932.70
2019-04-10T18:30:05.739Z,98929.91
2019-04-10T18:32:40.237Z,98926.80
2019-04-10T18:35:14.528Z,98926.58
2019-04-10T18:37:49.100Z,98924.05
2019-04-10T18:40:23.432Z,98923.41
2019-04-10T18:42:59.156Z,98921.27
2019-04-10T18:45:33.714Z,98918.41
2019-04-10T18:48:08.327Z,98917.77
2019-04-10T18:50:43.457Z,98911.48
2019-04-10T18:53:17.682Z,98912.52
2019-04-10T18:55:52.326Z,98913.00
2019-04-10T18:58:29.707Z,98913.61
2019-04-10T19:01:31.917Z,98922.97
2019-04-10T19:04:14.092Z,98918.47
2019-04-10T19:06:56.850Z,98909.77
2019-04-10T19:09:32.518Z,98910.71
2019-04-10T19:12:06.948Z,98911.34
2019-04-10T19:14:42.535Z,98908.48
2019-04-10T19:17:17.119Z,98906.33
2019-04-10T19:19:52.468Z,98912.20
2019-04-10T19:22:26.626Z,98909.36
2019-04-10T19:25:00.899Z,98905.85
2019-04-10T19:27:34.674Z,98902.11
2019-04-10T19:30:17.872Z,98903.44
2019-04-10T19:32:51.987Z,98912.00
2019-04-10T19:35:26.693Z,98904.84
2019-04-10T19:38:01.062Z,98902.27
2019-04-10T19:40:36.966Z,98894.13
2019-04-10T19:43:11.484Z,98887.33
2019-04-10T19:45:45.601Z,98887.12
2019-04-10T19:48:19.790Z,98881.77
2019-04-10T19:50:53.978Z,98879.51
2019-04-10T19:53:28.963Z,98882.50
2019-04-10T19:56:04.380Z,98880.33
2019-04-10T19:58:38.655Z,98880.28
2019-04-10T20:01:13.124Z,98888.80
2019-04-10T20:03:48.012Z,98884.27
2019-04-10T20:06:23.826Z,98880.34
2019-04-10T20:08:57.987Z,98871.34
2019-04-10T20:11:39.037Z,98875.64
2019-04-10T20:14:08.666Z,98871.80
2019-04-10T20:16:43.861Z,98867.45
2019-04-10T20:19:18.217Z,98862.95
2019-04-10T20:21:52.824Z,98864.64
2019-04-10T20:24:27.155Z,98867.23
2019-04-10T20:27:01.593Z,98863.78
2019-04-10T20:29:35.557Z,98872.95
2019-04-10T20:32:11.191Z,98871.55
2019-04-10T20:34:45.858Z,98873.20
2019-04-10T20:37:20.734Z,98877.83
2019-04-10T20:39:55.879Z,98882.86
2019-04-10T20:42:38.325Z,98878.13
2019-04-10T20:45:14.362Z,98885.53
2019-04-10T20:47:49.793Z,98884.00
2019-04-10T20:50:23.978Z,98879.23
2019-04-10T20:53:01.885Z,98878.80
2019-04-10T20:55:36.217Z,98877.39
2019-04-10T20:58:11.283Z,98881.49
2019-04-10T21:00:45.586Z,98881.05
2019-04-10T21:03:19.721Z,98867.56
2019-04-10T21:05:53.749Z,98875.56
2019-04-10T21:08:27.867Z,98869.54
2019-04-10T21:11:03.297Z,98872.35
2019-04-10T21:13:38.412Z,98870.44
2019-04-10T21:16:13.398Z,98862.31
2019-04-10T21:18:48.273Z,98866.71
2019-04-10T21:21:22.310Z,98862.98
2019-04-10T21:23:56.545Z,98868.70
2019-04-10T21:26:31.219Z,98859.73
2019-04-10T21:29:09.455Z,98864.42
2019-04-10T21:32:03.240Z,98860.13
2019-04-10T21:34:43.288Z,98867.56
2019-04-10T21:37:17.917Z,98865.58
2019-04-10T21:39:52.317Z,98871.14
2019-04-10T21:42:27.211Z,98866.94
2019-04-10T21:45:01.962Z,98869.58
2019-04-10T21:47:36.049Z,98878.38
2019-04-10T21:50:11.080Z,98871.84
2019-04-10T21:52:45.528Z,98880.85
2019-04-10T21:55:20.992Z,98875.17
2019-04-10T21:57:55.522Z,98878.02
2019-04-10T22:00:54.514Z,98874.45
2019-04-10T22:03:30.216Z,98872.19
2019-04-10T22:06:20.081Z,98868.08
2019-04-10T22:09:12.619Z,98875.66
2019-04-10T22:11:51.623Z,98874.69
2019-04-10T22:14:26.146Z,98880.31
2019-04-10T22:17:00.450Z,98885.30
2019-04-10T22:19:35.710Z,98884.60
2019-04-10T22:22:11.341Z,98880.03
2019-04-10T22:24:46.305Z,98876.83
2019-04-10T22:27:20.628Z,98876.11
2019-04-10T22:29:54.969Z,98884.04
2019-04-10T22:32:29.387Z,98890.63
2019-04-10T22:35:03.709Z,98890.02
2019-04-10T22:37:37.846Z,98887.92
2019-04-10T22:40:13.014Z,98894.17
2019-04-10T22:42:48.627Z,98889.27
2019-04-10T22:45:33.088Z,98894.98
2019-04-10T22:48:08.315Z,98896.95
2019-04-10T22:50:42.933Z,98896.15
2019-04-10T22:53:19.555Z,98895.64
2019-04-10T22:55:56.357Z,98894.27
2019-04-10T22:58:31.618Z,98892.70
2019-04-10T23:01:06.883Z,98893.72
2019-04-10T23:03:41.115Z,98900.89
2019-04-10T23:06:15.373Z,98902.21
2019-04-10T23:08:49.701Z,98903.98
2019-04-10T23:11:34.828Z,98908.55
2019-04-10T23:14:00.541Z,98909.41
2019-04-10T23:16:35.734Z,98909.70
2019-04-10T23:19:10.223Z,98911.13
2019-04-10T23:21:44.938Z,98905.45
2019-04-10T23:24:19.128Z,98909.24
2019-04-10T23:26:53.372Z,98912.19
2019-04-10T23:29:29.269Z,98907.69
2019-04-10T23:32:03.834Z,98916.70
2019-04-10T23:34:38.943Z,98913.41
2019-04-10T23:37:13.180Z,98913.20
2019-04-10T23:39:48.209Z,98912.14
2019-04-10T23:42:23.284Z,98921.26
2019-04-10T23:44:57.548Z,98920.70
2019-04-10T23:47:31.849Z,98919.33
2019-04-10T23:50:08.065Z,98925.56
2019-04-10T23:52:42.321Z,98929.15
2019-04-10T23:55:17.669Z,98929.16
2019-04-10T23:57:52.019Z,98928.70
